KTOB

Details ICAO KTOB
Name Dodge Center
Region United States
Timezone America/Chicago (UTC-6.0)
Plans Departing 6
Arriving 4
Stats Elevation 1,305 ft / 398 m (AMSL)
Location 44.018058° -92.832794°
Runways 2
Magnetic Variation 0.038° W
Sunrise 2017-12-17 13:42:08 UTC / 2017-12-17 07:42:08 Local
Sunset 2017-12-17 22:35:45 UTC / 2017-12-17 16:35:45 Local
Advertisement - Login to hide

Runways

ID Width Length Bearing (true) Bearing (mag) Surface Threshold Offset Overrun Length
04 200 ft / 61 m 2,281 ft / 695 m 44.68° 44.72° Grass 0 ft / 0 m 0 ft / 0 m
16 75 ft / 23 m 4,504 ft / 1,373 m 165.68° 165.72° Concrete 0 ft / 0 m 0 ft / 0 m
22 200 ft / 61 m 2,281 ft / 695 m 224.68° 224.72° Grass 0 ft / 0 m 0 ft / 0 m
34 75 ft / 23 m 4,504 ft / 1,373 m 345.68° 345.72° Concrete 0 ft / 0 m 0 ft / 0 m

Map

Weather


0- 5 10 15 20 25 30 35+ Temperature / ° C

Clouds and Precipitation
Forecast for 2017-12-18 00:00 UTC. Updated 28 minutes ago

Ground ~20,000 ft ~40,000 ft Winds

METAR

KTOB 171935Z AUTO 00000KT 3SM BR OVC003 M03/M03 A2999 RMK AO2

TAF

Not found

Frequencies

Recorded 119.07 MHz AWOS 3
Approach 119.80 MHz ROCHESTER APP/DEP
Unicom 122.90 MHz CTAF
Warning: Do not use this data for real-world aviation or navigation. No guarantee of current accuracy is given.